Time;durP1;ratioP1;P1;durP2;ratioP2;P2;SDS_P1;SDS_P2;PMS_P1;PMS_P2;Temp;Humidity;BMP_temperature;BMP_pressure;BME280_temperature;BME280_humidity;BME280_pressure;Samples;Min_cycle;Max_cycle;Signal;HPM_P1;HPM_P2
2022/09/05 00:03:22;;;;;;;1.20;1.10;;;;;;;;;;8283668;28;20147;-71
2022/09/05 00:07:46;;;;;;;1.40;1.30;;;;;;;;;;8282408;28;20022;-71
2022/09/05 00:11:57;;;;;;;2.75;1.27;;;;;;;;;;8282005;28;20025;-71
2022/09/05 00:16:16;;;;;;;2.33;1.27;;;;;;;;;;8283725;28;20065;-70
2022/09/05 00:20:39;;;;;;;1.42;1.33;;;;;;;;;;8268259;28;20021;-71
2022/09/05 00:24:59;;;;;;;1.50;1.40;;;;;;;;;;8282758;28;20033;-71
2022/09/05 00:29:16;;;;;;;3.25;1.55;;;;;;;;;;8283197;28;20021;-71
2022/09/05 00:33:23;;;;;;;1.42;1.33;;;;;;;;;;8283640;28;20032;-70
2022/09/05 00:37:26;;;;;;;1.50;1.40;;;;;;;;;;8268679;28;20124;-71
2022/09/05 00:41:27;;;;;;;2.40;1.40;;;;;;;;;;8282266;28;20029;-71
2022/09/05 00:45:42;;;;;;;3.47;1.63;;;;;;;;;;8283115;28;20858;-70
2022/09/05 00:49:46;;;;;;;1.40;1.30;;;;;;;;;;8281566;28;20041;-71
2022/09/05 00:54:18;;;;;;;1.85;1.40;;;;;;;;;;8281339;28;20509;-71
2022/09/05 00:58:37;;;;;;;2.38;1.50;;;;;;;;;;8243111;28;20033;-70
2022/09/05 01:03:01;;;;;;;1.40;1.30;;;;;;;;;;8281664;28;20053;-71
2022/09/05 01:07:07;;;;;;;1.88;1.17;;;;;;;;;;8281083;28;20021;-70
2022/09/05 01:11:07;;;;;;;1.40;1.30;;;;;;;;;;8282300;28;20022;-71
2022/09/05 01:15:17;;;;;;;1.65;1.45;;;;;;;;;;8279636;28;20409;-71
2022/09/05 01:19:26;;;;;;;1.17;1.08;;;;;;;;;;8282040;28;20132;-71
2022/09/05 01:23:39;;;;;;;1.58;1.48;;;;;;;;;;8281311;28;20730;-71
2022/09/05 01:27:51;;;;;;;1.43;1.30;;;;;;;;;;8283634;28;20497;-71
2022/09/05 01:31:51;;;;;;;1.40;1.30;;;;;;;;;;8281462;28;20449;-71
2022/09/05 01:36:04;;;;;;;2.20;1.25;;;;;;;;;;8284045;28;20018;-71
2022/09/05 01:40:07;;;;;;;3.72;1.38;;;;;;;;;;8282250;28;20021;-71
2022/09/05 01:44:25;;;;;;;1.55;1.45;;;;;;;;;;8283190;28;20059;-71
2022/09/05 01:48:30;;;;;;;1.52;1.17;;;;;;;;;;8283494;28;20171;-70
2022/09/05 01:52:38;;;;;;;3.65;1.30;;;;;;;;;;8282023;28;20025;-71
2022/09/05 01:56:57;;;;;;;1.92;1.42;;;;;;;;;;8284289;28;20116;-71
2022/09/05 02:01:03;;;;;;;1.35;1.20;;;;;;;;;;8282779;28;20033;-71
2022/09/05 02:05:12;;;;;;;1.40;1.30;;;;;;;;;;8283607;28;20889;-71
2022/09/05 02:09:18;;;;;;;2.33;1.40;;;;;;;;;;8286880;28;20034;-71
2022/09/05 02:13:22;;;;;;;2.22;1.40;;;;;;;;;;8288496;28;20029;-71
2022/09/05 02:17:41;;;;;;;1.70;1.58;;;;;;;;;;8288624;28;20072;-71
2022/09/05 02:22:00;;;;;;;3.38;1.40;;;;;;;;;;8285445;28;20071;-71
2022/09/05 02:26:20;;;;;;;1.42;1.33;;;;;;;;;;8286450;28;20116;-71
2022/09/05 02:30:22;;;;;;;1.40;1.30;;;;;;;;;;8272722;28;20434;-71
2022/09/05 02:34:35;;;;;;;2.05;1.52;;;;;;;;;;8287075;28;20029;-71
2022/09/05 02:38:41;;;;;;;3.20;1.73;;;;;;;;;;8286425;28;20025;-71
2022/09/05 02:42:41;;;;;;;1.50;1.40;;;;;;;;;;8287957;28;20033;-71
2022/09/05 02:47:00;;;;;;;1.60;1.50;;;;;;;;;;8284019;28;20134;-71
2022/09/05 02:51:07;;;;;;;1.65;1.50;;;;;;;;;;8287464;28;20049;-71
2022/09/05 02:55:22;;;;;;;2.47;1.50;;;;;;;;;;8286481;28;20032;-70
2022/09/05 02:59:34;;;;;;;2.45;1.50;;;;;;;;;;8285516;28;20039;-70
2022/09/05 03:03:55;;;;;;;2.72;1.40;;;;;;;;;;8284836;28;20037;-71
2022/09/05 03:08:10;;;;;;;2.30;1.60;;;;;;;;;;8248982;28;20132;-71
2022/09/05 03:12:36;;;;;;;4.88;1.70;;;;;;;;;;8285987;28;20547;-71
2022/09/05 03:16:56;;;;;;;1.48;1.40;;;;;;;;;;8271204;28;20677;-70
2022/09/05 03:21:06;;;;;;;1.48;1.38;;;;;;;;;;8284187;28;20064;-71
2022/09/05 03:25:06;;;;;;;1.52;1.42;;;;;;;;;;8285777;28;20025;-70
2022/09/05 03:29:18;;;;;;;1.92;1.40;;;;;;;;;;8285699;28;20021;-70
2022/09/05 03:33:35;;;;;;;1.73;1.52;;;;;;;;;;8283203;28;20103;-71
2022/09/05 03:37:54;;;;;;;1.40;1.30;;;;;;;;;;8262237;28;20026;-71
2022/09/05 03:42:00;;;;;;;4.10;1.42;;;;;;;;;;8283870;28;20723;-71
2022/09/05 03:46:10;;;;;;;1.88;1.60;;;;;;;;;;8285953;28;20639;-71
2022/09/05 03:50:10;;;;;;;2.63;1.77;;;;;;;;;;8283350;28;20145;-71
2022/09/05 03:54:37;;;;;;;1.90;1.50;;;;;;;;;;8282110;28;20736;-70
2022/09/05 03:58:55;;;;;;;1.90;1.55;;;;;;;;;;8255402;28;20044;-70
2022/09/05 04:03:14;;;;;;;2.03;1.70;;;;;;;;;;8282905;28;20569;-70
2022/09/05 04:07:24;;;;;;;1.90;1.80;;;;;;;;;;8282612;28;20021;-70
2022/09/05 04:11:43;;;;;;;2.03;1.52;;;;;;;;;;8282498;28;20036;-71
2022/09/05 04:15:45;;;;;;;1.40;1.30;;;;;;;;;;8283954;28;20042;-71
2022/09/05 04:19:54;;;;;;;1.60;1.48;;;;;;;;;;8272148;28;20021;-70
2022/09/05 04:24:05;;;;;;;1.60;1.50;;;;;;;;;;8283779;28;20140;-70
2022/09/05 04:28:24;;;;;;;2.85;1.60;;;;;;;;;;8283506;28;20057;-71
2022/09/05 04:32:24;;;;;;;5.55;1.73;;;;;;;;;;8268428;28;20034;-71
2022/09/05 04:36:27;;;;;;;1.70;1.60;;;;;;;;;;8282545;28;20148;-70
2022/09/05 04:40:45;;;;;;;3.23;1.60;;;;;;;;;;8282572;28;20345;-71
2022/09/05 04:44:48;;;;;;;1.80;1.70;;;;;;;;;;8277982;28;20025;-71
2022/09/05 04:48:54;;;;;;;3.97;1.58;;;;;;;;;;8281313;28;20956;-72
2022/09/05 04:53:10;;;;;;;1.90;1.80;;;;;;;;;;8280540;28;20538;-71
2022/09/05 04:57:29;;;;;;;1.85;1.75;;;;;;;;;;8282899;28;20087;-72
2022/09/05 05:01:32;;;;;;;2.85;1.60;;;;;;;;;;8282581;28;20096;-72
2022/09/05 05:06:04;;;;;;;2.10;1.90;;;;;;;;;;8282294;28;20045;-72
2022/09/05 05:10:06;;;;;;;2.42;1.77;;;;;;;;;;8231735;28;20041;-71
2022/09/05 05:14:09;;;;;;;2.05;1.80;;;;;;;;;;8280786;28;20033;-72
2022/09/05 05:18:13;;;;;;;2.40;2.20;;;;;;;;;;8283039;28;21058;-71
2022/09/05 05:22:14;;;;;;;5.05;2.00;;;;;;;;;;8279870;28;20026;-71
2022/09/05 05:26:27;;;;;;;2.83;2.50;;;;;;;;;;8283428;28;20216;-71
2022/09/05 05:30:31;;;;;;;2.35;2.13;;;;;;;;;;8281568;28;20532;-71
2022/09/05 05:34:31;;;;;;;;;;;;;;;;;;8283177;28;20021;-71
2022/09/05 05:38:36;;;;;;;3.65;2.42;;;;;;;;;;8280707;28;19913;-71
2022/09/05 05:42:37;;;;;;;2.72;2.22;;;;;;;;;;8284839;28;20413;-71
2022/09/05 05:46:38;;;;;;;3.58;2.30;;;;;;;;;;8288322;28;20037;-71
2022/09/05 05:50:48;;;;;;;3.88;2.42;;;;;;;;;;8286689;28;20029;-71
2022/09/05 05:54:52;;;;;;;3.05;2.75;;;;;;;;;;8276743;28;20753;-71
2022/09/05 05:58:52;;;;;;;;;;;;;;;;;;8286638;28;20033;-71
2022/09/05 06:03:10;;;;;;;3.10;2.60;;;;;;;;;;8288615;28;20458;-72
2022/09/05 06:07:29;;;;;;;4.53;2.50;;;;;;;;;;8280634;28;20026;-71
2022/09/05 06:11:48;;;;;;;4.80;2.95;;;;;;;;;;8288337;28;20028;-71
2022/09/05 06:16:03;;;;;;;2.90;2.63;;;;;;;;;;8259434;28;21014;-73
2022/09/05 06:20:15;;;;;;;9.63;2.63;;;;;;;;;;8288008;28;20029;-72
2022/09/05 06:24:27;;;;;;;6.85;2.58;;;;;;;;;;8287988;28;20090;-72
2022/09/05 06:28:35;;;;;;;2.70;2.50;;;;;;;;;;8286789;28;20045;-71
2022/09/05 06:32:46;;;;;;;3.03;2.55;;;;;;;;;;8284076;28;20654;-72
2022/09/05 06:36:54;;;;;;;2.65;2.42;;;;;;;;;;8286198;28;20025;-72
2022/09/05 06:41:03;;;;;;;3.55;2.60;;;;;;;;;;8287117;28;20816;-72
2022/09/05 06:45:23;;;;;;;7.22;3.25;;;;;;;;;;8285243;28;20025;-72
2022/09/05 06:49:31;;;;;;;3.38;2.70;;;;;;;;;;8284950;28;20032;-72
2022/09/05 06:53:46;;;;;;;4.38;2.80;;;;;;;;;;8285519;28;20036;-71
2022/09/05 06:58:06;;;;;;;4.35;2.70;;;;;;;;;;8287446;28;20029;-72
2022/09/05 07:02:22;;;;;;;3.90;2.78;;;;;;;;;;8269541;28;20577;-72
2022/09/05 07:06:29;;;;;;;3.50;2.90;;;;;;;;;;8287056;28;20554;-73
2022/09/05 07:10:34;;;;;;;3.75;2.72;;;;;;;;;;8285366;28;20045;-73
2022/09/05 07:14:39;;;;;;;5.32;2.70;;;;;;;;;;8287588;28;20025;-72
2022/09/05 07:18:53;;;;;;;3.45;2.40;;;;;;;;;;8286116;28;20045;-72
2022/09/05 07:23:11;;;;;;;2.78;2.47;;;;;;;;;;8269449;28;20983;-72
2022/09/05 07:27:25;;;;;;;4.43;2.33;;;;;;;;;;8284256;28;20026;-72
2022/09/05 07:31:26;;;;;;;2.65;2.45;;;;;;;;;;8284376;28;20589;-72
2022/09/05 07:35:28;;;;;;;2.30;2.10;;;;;;;;;;8284934;28;20034;-73
2022/09/05 07:39:32;;;;;;;2.47;1.98;;;;;;;;;;8285003;28;20044;-72
2022/09/05 07:43:34;;;;;;;2.30;2.10;;;;;;;;;;8285103;28;20081;-73
2022/09/05 07:47:37;;;;;;;4.47;2.40;;;;;;;;;;8284111;28;20842;-73
2022/09/05 07:51:37;;;;;;;;;;;;;;;;;;8284413;28;20053;-72
2022/09/05 07:55:38;;;;;;;2.50;2.00;;;;;;;;;;8275500;28;20114;-72
2022/09/05 07:59:39;;;;;;;2.33;1.90;;;;;;;;;;8283997;28;20033;-72
2022/09/05 08:03:39;;;;;;;3.38;1.80;;;;;;;;;;8282516;28;20041;-73
2022/09/05 08:07:43;;;;;;;2.45;2.20;;;;;;;;;;8284217;28;20069;-73
2022/09/05 08:11:43;;;;;;;2.65;1.80;;;;;;;;;;8283865;28;20029;-72
2022/09/05 08:15:45;;;;;;;2.08;1.70;;;;;;;;;;8282219;28;20041;-73
2022/09/05 08:20:01;;;;;;;3.92;1.90;;;;;;;;;;8284171;28;20024;-74
2022/09/05 08:24:08;;;;;;;2.28;1.88;;;;;;;;;;8282985;28;20675;-72
2022/09/05 08:28:18;;;;;;;1.75;1.50;;;;;;;;;;8283195;28;20028;-73
2022/09/05 08:32:27;;;;;;;2.45;1.73;;;;;;;;;;8282629;28;20044;-73
2022/09/05 08:36:29;;;;;;;4.05;1.70;;;;;;;;;;8283870;28;20025;-72
2022/09/05 08:40:34;;;;;;;1.92;1.60;;;;;;;;;;8282906;28;20040;-73
2022/09/05 08:44:54;;;;;;;3.80;1.70;;;;;;;;;;8280770;28;20029;-72
2022/09/05 08:49:03;;;;;;;5.88;1.70;;;;;;;;;;8284509;28;20072;-72
2022/09/05 08:53:19;;;;;;;5.53;1.90;;;;;;;;;;8281961;28;20083;-72
2022/09/05 08:57:40;;;;;;;3.05;2.17;;;;;;;;;;8284328;28;20674;-73
2022/09/05 09:01:50;;;;;;;2.60;2.40;;;;;;;;;;8240177;28;20045;-73
2022/09/05 09:05:54;;;;;;;2.22;2.03;;;;;;;;;;8282417;28;20977;-72
2022/09/05 09:09:57;;;;;;;2.75;1.65;;;;;;;;;;8284197;28;20045;-73
2022/09/05 09:14:15;;;;;;;6.85;1.80;;;;;;;;;;8282915;28;20033;-73
2022/09/05 09:18:17;;;;;;;5.72;2.10;;;;;;;;;;8281606;28;20141;-73
2022/09/05 09:22:20;;;;;;;2.75;2.20;;;;;;;;;;8280765;28;20033;-73
2022/09/05 09:26:27;;;;;;;2.55;2.25;;;;;;;;;;8284913;28;20495;-72
2022/09/05 09:30:29;;;;;;;2.40;2.20;;;;;;;;;;8281371;28;20156;-73
2022/09/05 09:34:38;;;;;;;2.92;1.90;;;;;;;;;;8282232;28;20562;-73
2022/09/05 09:38:38;;;;;;;4.35;2.20;;;;;;;;;;8281920;28;20025;-73
2022/09/05 09:42:44;;;;;;;4.68;2.42;;;;;;;;;;8282611;28;20395;-73
2022/09/05 09:46:46;;;;;;;2.33;2.13;;;;;;;;;;8282075;28;20042;-73
2022/09/05 09:50:46;;;;;;;;;;;;;;;;;;8282040;28;20040;-73
2022/09/05 09:55:06;;;;;;;5.00;2.05;;;;;;;;;;8284486;28;20327;-74
2022/09/05 09:59:25;;;;;;;3.45;1.90;;;;;;;;;;8280729;28;20833;-73
2022/09/05 10:03:44;;;;;;;2.28;1.90;;;;;;;;;;8282131;28;20153;-73
2022/09/05 10:07:49;;;;;;;2.67;1.90;;;;;;;;;;8281781;28;20026;-73
2022/09/05 10:12:01;;;;;;;2.63;1.50;;;;;;;;;;8283782;28;20026;-73
2022/09/05 10:16:20;;;;;;;2.10;1.85;;;;;;;;;;8280879;28;20063;-74
2022/09/05 10:20:21;;;;;;;2.10;1.90;;;;;;;;;;8282417;28;20068;-73
2022/09/05 10:24:30;;;;;;;3.38;1.77;;;;;;;;;;8282515;28;20946;-74
2022/09/05 10:28:36;;;;;;;2.15;1.70;;;;;;;;;;8285827;28;20203;-74
2022/09/05 10:32:40;;;;;;;5.75;1.77;;;;;;;;;;8284243;28;20065;-74
2022/09/05 10:36:45;;;;;;;3.58;1.92;;;;;;;;;;8287104;28;20021;-73
2022/09/05 10:40:49;;;;;;;2.30;1.63;;;;;;;;;;8289446;28;20044;-73
2022/09/05 10:44:53;;;;;;;3.38;1.55;;;;;;;;;;8287920;28;20022;-71
2022/09/05 10:48:57;;;;;;;2.63;1.70;;;;;;;;;;8285969;28;20149;-71
2022/09/05 10:53:00;;;;;;;3.60;1.50;;;;;;;;;;8285799;28;20032;-71
2022/09/05 10:57:22;;;;;;;4.82;1.80;;;;;;;;;;8285182;28;20368;-71
2022/09/05 11:01:25;;;;;;;2.00;1.50;;;;;;;;;;8269824;28;20543;-70
2022/09/05 11:05:34;;;;;;;2.72;1.55;;;;;;;;;;8287375;28;20021;-71
2022/09/05 11:09:35;;;;;;;2.42;1.50;;;;;;;;;;8283852;28;20033;-70
2022/09/05 11:13:41;;;;;;;2.08;1.40;;;;;;;;;;8285244;28;20120;-71
2022/09/05 11:17:46;;;;;;;1.63;1.52;;;;;;;;;;8287687;28;20050;-71
2022/09/05 11:22:06;;;;;;;1.83;1.60;;;;;;;;;;8285125;28;20051;-71
2022/09/05 11:26:22;;;;;;;2.13;1.48;;;;;;;;;;8285884;28;20025;-71
2022/09/05 11:30:23;;;;;;;1.50;1.40;;;;;;;;;;8271283;28;20071;-70
2022/09/05 11:34:27;;;;;;;4.53;1.40;;;;;;;;;;8285297;28;20022;-71
2022/09/05 11:38:27;;;;;;;2.35;1.65;;;;;;;;;;8283905;28;20027;-71
2022/09/05 11:42:27;;;;;;;2.92;1.65;;;;;;;;;;8286079;28;20880;-70
2022/09/05 11:46:27;;;;;;;3.40;1.58;;;;;;;;;;8283904;28;20045;-70
2022/09/05 11:50:51;;;;;;;2.97;1.43;;;;;;;;;;8284908;28;20371;-71
2022/09/05 11:55:00;;;;;;;2.33;1.50;;;;;;;;;;8283041;28;20294;-71
2022/09/05 11:59:19;;;;;;;3.67;1.30;;;;;;;;;;8284685;28;20116;-71
2022/09/05 12:03:33;;;;;;;2.05;1.20;;;;;;;;;;8283735;28;20040;-71
2022/09/05 12:07:56;;;;;;;3.42;1.40;;;;;;;;;;8284320;28;20140;-71
2022/09/05 12:12:25;;;;;;;1.33;1.23;;;;;;;;;;8283899;28;20030;-71
2022/09/05 12:16:25;;;;;;;5.78;1.40;;;;;;;;;;8283789;28;20150;-71
2022/09/05 12:20:30;;;;;;;3.30;1.38;;;;;;;;;;8281903;28;20025;-70
2022/09/05 12:24:49;;;;;;;2.10;1.30;;;;;;;;;;8283981;28;20037;-71
2022/09/05 12:28:51;;;;;;;4.25;1.60;;;;;;;;;;8283326;28;20033;-70
2022/09/05 12:32:54;;;;;;;3.20;1.35;;;;;;;;;;8269675;28;20057;-71
2022/09/05 12:36:55;;;;;;;1.77;1.45;;;;;;;;;;8281920;28;20021;-70
2022/09/05 12:41:12;;;;;;;4.95;1.48;;;;;;;;;;8283936;28;20122;-70
2022/09/05 12:45:19;;;;;;;2.40;1.48;;;;;;;;;;8274337;28;20014;-71
2022/09/05 12:49:22;;;;;;;1.23;1.13;;;;;;;;;;8284254;28;20544;-71
2022/09/05 12:53:23;;;;;;;4.78;1.50;;;;;;;;;;8280737;28;20017;-72
2022/09/05 12:57:29;;;;;;;2.63;1.37;;;;;;;;;;8276525;28;20034;-71
2022/09/05 13:01:34;;;;;;;1.80;1.30;;;;;;;;;;8280145;28;20042;-72
2022/09/05 13:05:44;;;;;;;1.55;1.25;;;;;;;;;;8279045;28;20056;-71
2022/09/05 13:09:47;;;;;;;2.72;1.40;;;;;;;;;;8279495;28;20029;-71
2022/09/05 13:13:52;;;;;;;1.42;1.33;;;;;;;;;;8279948;28;20083;-71
2022/09/05 13:17:58;;;;;;;1.45;1.20;;;;;;;;;;8279387;28;20506;-72
2022/09/05 13:22:00;;;;;;;2.65;1.50;;;;;;;;;;8281123;28;20072;-71
2022/09/05 13:26:04;;;;;;;3.78;1.60;;;;;;;;;;8281032;28;20562;-71
2022/09/05 13:30:08;;;;;;;3.85;1.48;;;;;;;;;;8278072;28;20080;-71
2022/09/05 13:34:16;;;;;;;4.30;1.30;;;;;;;;;;8280642;28;20030;-71
2022/09/05 13:38:26;;;;;;;1.60;1.20;;;;;;;;;;8259374;28;20021;-71
2022/09/05 13:42:31;;;;;;;1.90;1.25;;;;;;;;;;8280895;28;20030;-71
2022/09/05 13:46:40;;;;;;;1.30;1.20;;;;;;;;;;8267350;28;20049;-69
2022/09/05 13:50:45;;;;;;;1.98;1.40;;;;;;;;;;8278080;28;20087;-70
2022/09/05 13:54:45;;;;;;;3.20;1.50;;;;;;;;;;8281283;28;20032;-71
2022/09/05 13:58:48;;;;;;;2.90;1.40;;;;;;;;;;8278223;28;20029;-71
2022/09/05 14:03:07;;;;;;;5.18;1.40;;;;;;;;;;8279448;28;20033;-70
2022/09/05 14:07:26;;;;;;;4.53;1.50;;;;;;;;;;8285415;28;20036;-71
2022/09/05 14:11:39;;;;;;;4.00;1.30;;;;;;;;;;8283826;28;20056;-71
2022/09/05 14:15:54;;;;;;;1.45;1.10;;;;;;;;;;8261941;28;20259;-71
2022/09/05 14:24:23;;;;;;;2.38;1.30;;;;;;;;;;8286325;28;20087;-71
2022/09/05 14:28:34;;;;;;;4.03;1.33;;;;;;;;;;8285239;28;20021;-71
2022/09/05 14:33:14;;;;;;;1.83;1.30;;;;;;;;;;8281858;28;20029;-71
2022/09/05 14:37:33;;;;;;;2.28;1.30;;;;;;;;;;8201116;28;20534;-71
2022/09/05 14:41:42;;;;;;;2.53;1.30;;;;;;;;;;8283544;28;20099;-70
2022/09/05 14:45:45;;;;;;;1.67;1.17;;;;;;;;;;8281984;28;20068;-70
2022/09/05 14:50:02;;;;;;;1.95;1.08;;;;;;;;;;8283203;28;20041;-70
2022/09/05 14:54:10;;;;;;;4.32;1.30;;;;;;;;;;8283479;28;20672;-70
2022/09/05 14:58:10;;;;;;;1.30;1.20;;;;;;;;;;8282882;28;20808;-71
2022/09/05 15:02:11;;;;;;;2.00;1.30;;;;;;;;;;8272586;28;20045;-70
2022/09/05 15:06:20;;;;;;;1.30;1.20;;;;;;;;;;8282570;28;20525;-70
2022/09/05 15:10:24;;;;;;;1.80;1.27;;;;;;;;;;8283849;28;20021;-71
2022/09/05 15:14:26;;;;;;;2.97;1.30;;;;;;;;;;8282027;28;20021;-71
2022/09/05 15:18:29;;;;;;;1.45;1.20;;;;;;;;;;8282219;28;20113;-71
2022/09/05 15:22:30;;;;;;;1.77;1.20;;;;;;;;;;8282661;28;20061;-70
2022/09/05 15:26:31;;;;;;;3.63;1.20;;;;;;;;;;8281466;28;20703;-70
2022/09/05 15:30:34;;;;;;;2.47;1.20;;;;;;;;;;8278705;28;20708;-71
2022/09/05 15:34:35;;;;;;;1.27;1.20;;;;;;;;;;8281596;28;20030;-71
2022/09/05 15:38:36;;;;;;;2.13;1.40;;;;;;;;;;8280738;28;20041;-70
2022/09/05 15:42:40;;;;;;;1.87;1.60;;;;;;;;;;8282713;28;20025;-71
2022/09/05 15:46:48;;;;;;;1.65;1.10;;;;;;;;;;8279930;28;20757;-71
2022/09/05 15:50:50;;;;;;;1.33;1.23;;;;;;;;;;8279033;28;20394;-70
2022/09/05 15:54:53;;;;;;;1.35;1.20;;;;;;;;;;8279894;28;20776;-71
2022/09/05 15:58:55;;;;;;;3.80;1.20;;;;;;;;;;8281009;28;20037;-71
2022/09/05 16:02:55;;;;;;;1.83;1.38;;;;;;;;;;8279868;28;20057;-71
2022/09/05 16:06:57;;;;;;;1.40;1.27;;;;;;;;;;8269514;28;20063;-70
2022/09/05 16:11:27;;;;;;;2.13;1.20;;;;;;;;;;8280372;28;20226;-70
2022/09/05 16:15:30;;;;;;;1.27;1.17;;;;;;;;;;8261179;28;20061;-70
2022/09/05 16:19:37;;;;;;;5.22;1.55;;;;;;;;;;8282446;28;20101;-70
2022/09/05 16:23:41;;;;;;;0.98;0.98;;;;;;;;;;8280609;28;20029;-71
2022/09/05 16:27:52;;;;;;;1.38;1.27;;;;;;;;;;8279966;28;20373;-70
2022/09/05 16:31:55;;;;;;;2.10;1.20;;;;;;;;;;8281952;28;20044;-71
2022/09/05 16:35:58;;;;;;;1.38;1.20;;;;;;;;;;8281451;28;20025;-70
2022/09/05 16:40:14;;;;;;;1.40;1.30;;;;;;;;;;8283866;28;20038;-70
2022/09/05 16:44:19;;;;;;;3.65;1.60;;;;;;;;;;8283895;28;20364;-71
2022/09/05 16:48:34;;;;;;;1.63;1.52;;;;;;;;;;8283492;28;20494;-71
2022/09/05 16:52:55;;;;;;;1.50;1.40;;;;;;;;;;8279034;28;20072;-70
2022/09/05 16:57:18;;;;;;;1.45;1.35;;;;;;;;;;8247889;28;20045;-70
2022/09/05 17:01:25;;;;;;;2.03;1.45;;;;;;;;;;8270006;28;20419;-70
2022/09/05 17:05:32;;;;;;;4.25;1.40;;;;;;;;;;8279285;28;20080;-70
2022/09/05 17:09:35;;;;;;;2.05;1.10;;;;;;;;;;8280783;28;20395;-70
2022/09/05 17:13:41;;;;;;;1.80;1.35;;;;;;;;;;8279710;28;20061;-70
2022/09/05 17:17:45;;;;;;;1.65;1.30;;;;;;;;;;8278572;28;20115;-70
2022/09/05 17:21:46;;;;;;;1.58;1.30;;;;;;;;;;8278458;28;20063;-70
2022/09/05 17:25:52;;;;;;;1.50;1.20;;;;;;;;;;8264759;28;20033;-70
2022/09/05 17:29:53;;;;;;;3.75;1.40;;;;;;;;;;8279370;28;20035;-70
2022/09/05 17:33:55;;;;;;;1.73;1.30;;;;;;;;;;8277566;28;20137;-70
2022/09/05 17:38:14;;;;;;;1.10;1.10;;;;;;;;;;8283569;28;20383;-70
2022/09/05 17:42:23;;;;;;;2.17;1.30;;;;;;;;;;8286886;28;20906;-70
2022/09/05 17:46:27;;;;;;;2.92;1.35;;;;;;;;;;8284498;28;20038;-70
2022/09/05 17:50:32;;;;;;;4.63;1.40;;;;;;;;;;8285297;28;20022;-70
2022/09/05 17:54:32;;;;;;;1.55;1.45;;;;;;;;;;8286085;28;20108;-70
2022/09/05 17:58:33;;;;;;;1.57;1.47;;;;;;;;;;8287118;28;20066;-71
2022/09/05 18:02:50;;;;;;;1.67;1.30;;;;;;;;;;8286193;28;20272;-70
2022/09/05 18:06:51;;;;;;;1.63;1.25;;;;;;;;;;8285301;28;20033;-70
2022/09/05 18:10:59;;;;;;;3.90;1.42;;;;;;;;;;8283642;28;20036;-71
2022/09/05 18:15:02;;;;;;;1.40;1.30;;;;;;;;;;8286735;28;20104;-70
2022/09/05 18:19:12;;;;;;;1.35;1.25;;;;;;;;;;8284882;28;20042;-71
2022/09/05 18:23:19;;;;;;;1.23;1.23;;;;;;;;;;8284888;28;20128;-70
2022/09/05 18:27:22;;;;;;;1.48;1.38;;;;;;;;;;8283026;28;20034;-73
2022/09/05 18:31:37;;;;;;;1.50;1.40;;;;;;;;;;8282396;28;20083;-73
2022/09/05 18:35:53;;;;;;;1.20;1.20;;;;;;;;;;8284022;28;20028;-73
2022/09/05 18:40:04;;;;;;;1.50;1.40;;;;;;;;;;8284357;28;20443;-73
2022/09/05 18:44:08;;;;;;;2.85;1.40;;;;;;;;;;8282933;28;20049;-73
2022/09/05 18:48:09;;;;;;;2.28;1.38;;;;;;;;;;8282407;28;20038;-73
2022/09/05 18:52:13;;;;;;;1.48;1.38;;;;;;;;;;8282422;28;20026;-72
2022/09/05 18:56:29;;;;;;;1.83;1.40;;;;;;;;;;8284962;28;20025;-72
2022/09/05 19:00:30;;;;;;;1.40;1.25;;;;;;;;;;8281874;28;20030;-72
2022/09/05 19:04:32;;;;;;;1.93;1.50;;;;;;;;;;8282807;28;20025;-72
2022/09/05 19:08:35;;;;;;;2.55;1.50;;;;;;;;;;8285005;28;20378;-72
2022/09/05 19:12:40;;;;;;;1.42;1.33;;;;;;;;;;8269017;28;20437;-72
2022/09/05 19:16:41;;;;;;;2.03;1.40;;;;;;;;;;8280967;28;20136;-72
2022/09/05 19:21:00;;;;;;;1.60;1.50;;;;;;;;;;8282730;28;20109;-72
2022/09/05 19:25:00;;;;;;;1.50;1.40;;;;;;;;;;8283048;28;20060;-72
2022/09/05 19:29:02;;;;;;;1.88;1.50;;;;;;;;;;8283020;28;20022;-72
2022/09/05 19:33:03;;;;;;;2.17;1.52;;;;;;;;;;8270089;28;20148;-71
2022/09/05 19:37:05;;;;;;;2.85;1.60;;;;;;;;;;8283173;28;20021;-72
2022/09/05 19:41:05;;;;;;;1.52;1.42;;;;;;;;;;8275277;28;20036;-72
2022/09/05 19:45:06;;;;;;;2.73;1.50;;;;;;;;;;8275703;28;20673;-72
2022/09/05 19:49:08;;;;;;;2.10;1.50;;;;;;;;;;8284375;28;20566;-72
2022/09/05 19:53:11;;;;;;;1.45;1.35;;;;;;;;;;8283661;28;20017;-72
2022/09/05 19:57:13;;;;;;;1.60;1.50;;;;;;;;;;8284685;28;20106;-72
2022/09/05 20:01:15;;;;;;;1.70;1.60;;;;;;;;;;8280837;28;20044;-72
2022/09/05 20:05:16;;;;;;;1.50;1.40;;;;;;;;;;8287433;28;20029;-72
2022/09/05 20:09:18;;;;;;;4.40;1.30;;;;;;;;;;8284197;28;20029;-72
2022/09/05 20:13:22;;;;;;;2.55;1.63;;;;;;;;;;8260258;28;20133;-72
2022/09/05 20:17:27;;;;;;;1.95;1.70;;;;;;;;;;8283302;28;20120;-72
2022/09/05 20:21:34;;;;;;;2.17;1.65;;;;;;;;;;8415570;27;1229042;-56
2022/09/05 20:25:42;;;;;;;1.90;1.40;;;;;;;;;;8427996;28;20844;-56
2022/09/05 20:29:52;;;;;;;1.90;1.40;;;;;;;;;;8430333;28;20071;-56
2022/09/05 20:34:11;;;;;;;2.03;1.55;;;;;;;;;;8365222;28;20036;-55
2022/09/05 20:38:19;;;;;;;3.80;1.70;;;;;;;;;;8365698;28;20396;-56
2022/09/05 20:42:28;;;;;;;3.00;1.75;;;;;;;;;;8362241;28;20020;-55
2022/09/05 20:46:31;;;;;;;2.05;1.27;;;;;;;;;;8363552;28;20033;-57
2022/09/05 20:50:32;;;;;;;3.78;1.58;;;;;;;;;;8362782;28;20033;-56
2022/09/05 20:54:37;;;;;;;2.50;1.48;;;;;;;;;;8361897;28;20052;-57
2022/09/05 20:58:37;;;;;;;5.07;1.60;;;;;;;;;;8360167;28;20024;-57
2022/09/05 21:02:46;;;;;;;1.55;1.30;;;;;;;;;;8361061;28;20949;-56
2022/09/05 21:06:48;;;;;;;2.40;1.52;;;;;;;;;;8361238;28;20051;-55
2022/09/05 21:10:49;;;;;;;1.65;1.42;;;;;;;;;;8362067;28;20699;-58
2022/09/05 21:15:19;;;;;;;2.88;1.40;;;;;;;;;;8346719;28;20132;-55
2022/09/05 21:19:23;;;;;;;1.73;1.63;;;;;;;;;;8341441;28;20040;-56
2022/09/05 21:23:36;;;;;;;1.98;1.58;;;;;;;;;;8353634;28;20111;-57
2022/09/05 21:27:36;;;;;;;2.70;1.50;;;;;;;;;;8351741;28;20939;-57
2022/09/05 21:31:40;;;;;;;2.03;1.40;;;;;;;;;;8333040;28;20152;-59
2022/09/05 21:35:40;;;;;;;;;;;;;;;;;;8323921;28;20263;-57
2022/09/05 21:39:49;;;;;;;1.42;1.27;;;;;;;;;;8328029;28;19986;-57
2022/09/05 21:43:50;;;;;;;1.70;1.40;;;;;;;;;;8329529;28;20040;-58
2022/09/05 21:47:50;;;;;;;1.77;1.30;;;;;;;;;;8328200;28;20119;-57
2022/09/05 21:51:50;;;;;;;2.35;1.30;;;;;;;;;;8327116;28;20090;-57
2022/09/05 21:55:51;;;;;;;3.08;1.40;;;;;;;;;;8330863;28;20035;-57
2022/09/05 21:59:55;;;;;;;1.50;1.40;;;;;;;;;;8327734;28;20037;-57
2022/09/05 22:03:57;;;;;;;1.40;1.30;;;;;;;;;;8328571;28;20114;-58
2022/09/05 22:07:59;;;;;;;3.17;1.70;;;;;;;;;;8328312;28;20036;-59
2022/09/05 22:11:59;;;;;;;2.13;1.52;;;;;;;;;;8327265;28;20539;-58
2022/09/05 22:16:03;;;;;;;1.45;1.35;;;;;;;;;;8329029;28;20123;-58
2022/09/05 22:20:06;;;;;;;1.73;1.40;;;;;;;;;;8328765;28;20032;-58
2022/09/05 22:24:08;;;;;;;2.07;1.57;;;;;;;;;;8328325;28;20108;-59
2022/09/05 22:28:14;;;;;;;2.40;1.30;;;;;;;;;;8328930;28;20729;-59
2022/09/05 22:32:14;;;;;;;3.78;1.40;;;;;;;;;;8324965;28;20040;-57
2022/09/05 22:36:15;;;;;;;1.67;1.35;;;;;;;;;;8327415;28;20029;-59
2022/09/05 22:40:15;;;;;;;1.40;1.30;;;;;;;;;;8327065;28;20028;-58
2022/09/05 22:44:16;;;;;;;1.45;1.30;;;;;;;;;;8325080;28;20025;-58
2022/09/05 22:48:16;;;;;;;1.65;1.55;;;;;;;;;;8324396;28;20044;-58
2022/09/05 22:52:16;;;;;;;1.38;1.30;;;;;;;;;;8328251;28;20033;-58
2022/09/05 22:56:27;;;;;;;5.13;1.33;;;;;;;;;;8325411;28;20022;-59
2022/09/05 23:00:28;;;;;;;3.45;1.40;;;;;;;;;;8326694;28;20144;-58
2022/09/05 23:04:28;;;;;;;2.33;1.50;;;;;;;;;;8326629;28;20603;-57
2022/09/05 23:08:28;;;;;;;2.55;1.30;;;;;;;;;;8326627;28;20132;-57
2022/09/05 23:12:33;;;;;;;3.60;1.33;;;;;;;;;;8326562;28;20078;-57
2022/09/05 23:16:33;;;;;;;1.40;1.20;;;;;;;;;;8322975;28;20699;-58
2022/09/05 23:20:33;;;;;;;1.40;1.30;;;;;;;;;;8323926;28;20107;-58
2022/09/05 23:24:33;;;;;;;3.20;1.45;;;;;;;;;;8328708;28;20020;-58
2022/09/05 23:28:41;;;;;;;1.45;1.17;;;;;;;;;;8327386;28;20024;-57
2022/09/05 23:32:45;;;;;;;1.40;1.25;;;;;;;;;;8325772;28;20098;-58
2022/09/05 23:36:46;;;;;;;1.30;1.20;;;;;;;;;;8326912;28;20030;-58
2022/09/05 23:40:46;;;;;;;1.35;1.25;;;;;;;;;;8326530;28;20759;-57
2022/09/05 23:44:46;;;;;;;1.52;1.25;;;;;;;;;;8326126;28;20118;-58
2022/09/05 23:48:46;;;;;;;1.40;1.30;;;;;;;;;;8326748;28;20043;-57
2022/09/05 23:52:46;;;;;;;1.40;1.30;;;;;;;;;;8323775;28;20869;-58
2022/09/05 23:56:47;;;;;;;2.33;1.20;;;;;;;;;;8327353;28;20040;-59
